sensor_id;sensor_type;location;lat;lon;timestamp;pressure;altitude;pressure_sealevel;temperature;humidity
60267;BME280;46125;61.360;-149.532;2023-05-19T00:02:17;99534.26;;;18.65;25.74
60267;BME280;46125;61.360;-149.532;2023-05-19T00:04:47;99526.32;;;19.05;25.47
60267;BME280;46125;61.360;-149.532;2023-05-19T00:07:18;99524.59;;;19.05;25.84
60267;BME280;46125;61.360;-149.532;2023-05-19T00:09:47;99522.36;;;19.24;25.44
60267;BME280;46125;61.360;-149.532;2023-05-19T00:12:16;99521.72;;;18.89;24.82
60267;BME280;46125;61.360;-149.532;2023-05-19T00:14:45;99519.33;;;18.12;27.33
60267;BME280;46125;61.360;-149.532;2023-05-19T00:17:15;99512.03;;;18.24;25.36
60267;BME280;46125;61.360;-149.532;2023-05-19T00:19:44;99503.23;;;18.39;25.85
60267;BME280;46125;61.360;-149.532;2023-05-19T00:22:12;99493.04;;;16.45;28.10
60267;BME280;46125;61.360;-149.532;2023-05-19T00:24:41;99495.77;;;16.97;27.02
60267;BME280;46125;61.360;-149.532;2023-05-19T00:27:09;99499.95;;;18.07;26.64
60267;BME280;46125;61.360;-149.532;2023-05-19T00:29:38;99507.23;;;18.03;25.98
60267;BME280;46125;61.360;-149.532;2023-05-19T00:32:06;99506.17;;;18.45;25.02
60267;BME280;46125;61.360;-149.532;2023-05-19T00:34:35;99499.56;;;18.56;24.97
60267;BME280;46125;61.360;-149.532;2023-05-19T00:37:03;99501.25;;;19.31;23.61
60267;BME280;46125;61.360;-149.532;2023-05-19T00:39:32;99500.61;;;18.31;24.46
60267;BME280;46125;61.360;-149.532;2023-05-19T00:42:00;99494.36;;;18.85;23.85
60267;BME280;46125;61.360;-149.532;2023-05-19T00:44:29;99489.77;;;17.96;25.23
60267;BME280;46125;61.360;-149.532;2023-05-19T00:46:57;99477.05;;;17.79;27.37
60267;BME280;46125;61.360;-149.532;2023-05-19T00:49:25;99468.68;;;20.04;23.87
60267;BME280;46125;61.360;-149.532;2023-05-19T00:51:54;99465.82;;;17.85;27.07
60267;BME280;46125;61.360;-149.532;2023-05-19T00:54:23;99462.77;;;18.54;26.96
60267;BME280;46125;61.360;-149.532;2023-05-19T00:56:53;99459.82;;;19.43;25.18
60267;BME280;46125;61.360;-149.532;2023-05-19T00:59:22;99451.46;;;18.59;25.70
60267;BME280;46125;61.360;-149.532;2023-05-19T01:01:51;99453.30;;;19.12;24.63
60267;BME280;46125;61.360;-149.532;2023-05-19T01:04:20;99454.12;;;18.88;24.46
60267;BME280;46125;61.360;-149.532;2023-05-19T01:06:49;99452.73;;;19.94;23.46
60267;BME280;46125;61.360;-149.532;2023-05-19T01:09:18;99447.09;;;19.38;24.36
60267;BME280;46125;61.360;-149.532;2023-05-19T01:11:47;99440.70;;;19.28;24.57
60267;BME280;46125;61.360;-149.532;2023-05-19T01:14:16;99435.24;;;19.44;24.29
60267;BME280;46125;61.360;-149.532;2023-05-19T01:16:52;99436.81;;;18.45;24.89
60267;BME280;46125;61.360;-149.532;2023-05-19T01:19:36;99429.04;;;17.84;25.46
60267;BME280;46125;61.360;-149.532;2023-05-19T01:22:25;99426.85;;;19.09;25.41
60267;BME280;46125;61.360;-149.532;2023-05-19T01:25:16;99425.84;;;18.87;25.98
60267;BME280;46125;61.360;-149.532;2023-05-19T01:28:14;99419.17;;;18.19;25.03
60267;BME280;46125;61.360;-149.532;2023-05-19T01:30:50;99415.74;;;18.57;24.87
60267;BME280;46125;61.360;-149.532;2023-05-19T01:33:22;99416.87;;;19.30;23.99
60267;BME280;46125;61.360;-149.532;2023-05-19T01:35:51;99414.13;;;18.45;24.92
60267;BME280;46125;61.360;-149.532;2023-05-19T01:38:22;99408.31;;;18.68;24.94
60267;BME280;46125;61.360;-149.532;2023-05-19T01:40:52;99402.75;;;18.80;24.86
60267;BME280;46125;61.360;-149.532;2023-05-19T01:43:23;99403.42;;;18.06;25.02
60267;BME280;46125;61.360;-149.532;2023-05-19T01:45:52;99399.19;;;19.03;24.22
60267;BME280;46125;61.360;-149.532;2023-05-19T01:48:22;99391.74;;;19.49;24.57
60267;BME280;46125;61.360;-149.532;2023-05-19T01:50:51;99388.19;;;19.26;23.61
60267;BME280;46125;61.360;-149.532;2023-05-19T01:53:19;99384.76;;;19.54;25.11
60267;BME280;46125;61.360;-149.532;2023-05-19T01:55:50;99379.17;;;19.26;26.77
60267;BME280;46125;61.360;-149.532;2023-05-19T01:58:26;99376.77;;;18.65;25.98
60267;BME280;46125;61.360;-149.532;2023-05-19T02:01:05;99373.58;;;18.99;26.18
60267;BME280;46125;61.360;-149.532;2023-05-19T02:03:55;99365.01;;;17.82;26.64
60267;BME280;46125;61.360;-149.532;2023-05-19T02:06:35;99367.66;;;19.21;24.62
60267;BME280;46125;61.360;-149.532;2023-05-19T02:09:11;99361.96;;;18.86;27.42
60267;BME280;46125;61.360;-149.532;2023-05-19T02:11:52;99361.03;;;19.86;25.75
60267;BME280;46125;61.360;-149.532;2023-05-19T02:14:27;99352.47;;;20.37;23.35
60267;BME280;46125;61.360;-149.532;2023-05-19T02:16:57;99345.56;;;20.71;22.77
60267;BME280;46125;61.360;-149.532;2023-05-19T02:19:28;99339.22;;;21.42;23.08
60267;BME280;46125;61.360;-149.532;2023-05-19T02:21:57;99333.76;;;21.55;22.76
60267;BME280;46125;61.360;-149.532;2023-05-19T02:24:26;99328.82;;;19.61;24.66
60267;BME280;46125;61.360;-149.532;2023-05-19T02:26:54;99320.91;;;20.76;22.78
60267;BME280;46125;61.360;-149.532;2023-05-19T02:29:22;99317.96;;;20.12;23.60
60267;BME280;46125;61.360;-149.532;2023-05-19T02:31:51;99315.68;;;20.50;23.44
60267;BME280;46125;61.360;-149.532;2023-05-19T02:34:20;99313.45;;;20.31;24.07
60267;BME280;46125;61.360;-149.532;2023-05-19T02:36:48;99312.13;;;20.26;23.65
60267;BME280;46125;61.360;-149.532;2023-05-19T02:39:17;99312.14;;;20.41;24.37
60267;BME280;46125;61.360;-149.532;2023-05-19T02:41:45;99305.85;;;20.57;24.08
60267;BME280;46125;61.360;-149.532;2023-05-19T02:44:13;99305.66;;;19.64;26.80
60267;BME280;46125;61.360;-149.532;2023-05-19T02:46:42;99303.37;;;19.75;25.36
60267;BME280;46125;61.360;-149.532;2023-05-19T02:49:10;99303.63;;;19.30;25.49
60267;BME280;46125;61.360;-149.532;2023-05-19T02:51:39;99293.90;;;20.20;26.31
60267;BME280;46125;61.360;-149.532;2023-05-19T02:54:08;99297.92;;;17.74;28.48
60267;BME280;46125;61.360;-149.532;2023-05-19T02:56:36;99297.19;;;18.92;27.90
60267;BME280;46125;61.360;-149.532;2023-05-19T02:59:05;99293.71;;;18.40;28.64
60267;BME280;46125;61.360;-149.532;2023-05-19T03:01:34;99287.88;;;18.34;28.70
60267;BME280;46125;61.360;-149.532;2023-05-19T03:04:02;99284.75;;;18.18;29.61
60267;BME280;46125;61.360;-149.532;2023-05-19T03:06:30;99280.81;;;17.73;29.29
60267;BME280;46125;61.360;-149.532;2023-05-19T03:09:09;99281.01;;;17.86;28.83
60267;BME280;46125;61.360;-149.532;2023-05-19T03:11:38;99275.51;;;18.21;28.03
60267;BME280;46125;61.360;-149.532;2023-05-19T03:14:16;99273.69;;;18.62;27.59
60267;BME280;46125;61.360;-149.532;2023-05-19T03:16:46;99272.61;;;18.28;27.80
60267;BME280;46125;61.360;-149.532;2023-05-19T03:19:14;99274.40;;;17.71;28.63
60267;BME280;46125;61.360;-149.532;2023-05-19T03:21:43;99275.26;;;17.97;27.41
60267;BME280;46125;61.360;-149.532;2023-05-19T03:24:11;99275.73;;;17.41;28.30
60267;BME280;46125;61.360;-149.532;2023-05-19T03:26:40;99271.55;;;17.72;27.36
60267;BME280;46125;61.360;-149.532;2023-05-19T03:29:08;99272.51;;;17.86;27.86
60267;BME280;46125;61.360;-149.532;2023-05-19T03:31:37;99271.34;;;18.37;26.33
60267;BME280;46125;61.360;-149.532;2023-05-19T03:34:05;99272.00;;;17.88;27.01
60267;BME280;46125;61.360;-149.532;2023-05-19T03:36:33;99267.12;;;18.82;26.00
60267;BME280;46125;61.360;-149.532;2023-05-19T03:39:02;99262.48;;;19.31;26.11
60267;BME280;46125;61.360;-149.532;2023-05-19T03:41:30;99262.07;;;18.08;26.68
60267;BME280;46125;61.360;-149.532;2023-05-19T03:43:59;99256.62;;;19.54;24.89
60267;BME280;46125;61.360;-149.532;2023-05-19T03:46:28;99254.81;;;18.81;27.30
60267;BME280;46125;61.360;-149.532;2023-05-19T03:48:56;99247.67;;;17.45;27.25
60267;BME280;46125;61.360;-149.532;2023-05-19T03:51:25;99239.57;;;18.88;25.49
60267;BME280;46125;61.360;-149.532;2023-05-19T03:53:54;99239.45;;;17.20;29.49
60267;BME280;46125;61.360;-149.532;2023-05-19T03:56:22;99240.70;;;18.90;26.71
60267;BME280;46125;61.360;-149.532;2023-05-19T03:58:50;99236.23;;;19.37;25.35
60267;BME280;46125;61.360;-149.532;2023-05-19T04:01:20;99236.33;;;19.77;24.30
60267;BME280;46125;61.360;-149.532;2023-05-19T04:03:48;99237.88;;;18.89;26.89
60267;BME280;46125;61.360;-149.532;2023-05-19T04:06:17;99237.88;;;19.49;24.86
60267;BME280;46125;61.360;-149.532;2023-05-19T04:08:46;99239.00;;;18.90;24.62
60267;BME280;46125;61.360;-149.532;2023-05-19T04:11:14;99234.05;;;19.48;25.90
60267;BME280;46125;61.360;-149.532;2023-05-19T04:13:42;99232.99;;;19.86;23.99
60267;BME280;46125;61.360;-149.532;2023-05-19T04:16:11;99234.13;;;18.18;26.18
60267;BME280;46125;61.360;-149.532;2023-05-19T04:18:39;99231.18;;;19.23;25.81
60267;BME280;46125;61.360;-149.532;2023-05-19T04:21:08;99229.51;;;19.84;25.48
60267;BME280;46125;61.360;-149.532;2023-05-19T04:23:36;99230.71;;;19.66;25.60
60267;BME280;46125;61.360;-149.532;2023-05-19T04:26:05;99230.41;;;20.36;26.65
60267;BME280;46125;61.360;-149.532;2023-05-19T04:28:33;99226.03;;;20.48;23.87
60267;BME280;46125;61.360;-149.532;2023-05-19T04:31:02;99222.96;;;19.06;26.17
60267;BME280;46125;61.360;-149.532;2023-05-19T04:33:30;99219.64;;;19.18;25.52
60267;BME280;46125;61.360;-149.532;2023-05-19T04:35:59;99217.31;;;19.29;25.44
60267;BME280;46125;61.360;-149.532;2023-05-19T04:38:27;99217.51;;;20.07;25.87
60267;BME280;46125;61.360;-149.532;2023-05-19T04:40:56;99218.97;;;19.09;25.23
60267;BME280;46125;61.360;-149.532;2023-05-19T04:43:24;99214.43;;;19.42;25.48
60267;BME280;46125;61.360;-149.532;2023-05-19T04:45:53;99213.15;;;19.21;25.06
60267;BME280;46125;61.360;-149.532;2023-05-19T04:48:21;99215.91;;;18.52;26.16
60267;BME280;46125;61.360;-149.532;2023-05-19T04:50:50;99212.41;;;18.58;27.05
60267;BME280;46125;61.360;-149.532;2023-05-19T04:53:19;99207.32;;;19.48;25.21
60267;BME280;46125;61.360;-149.532;2023-05-19T04:55:48;99206.69;;;19.91;25.40
60267;BME280;46125;61.360;-149.532;2023-05-19T04:58:16;99208.55;;;19.54;24.14
60267;BME280;46125;61.360;-149.532;2023-05-19T05:00:45;99205.01;;;19.42;26.54
60267;BME280;46125;61.360;-149.532;2023-05-19T05:03:14;99201.32;;;19.66;25.57
60267;BME280;46125;61.360;-149.532;2023-05-19T05:05:43;99197.04;;;19.40;25.27
60267;BME280;46125;61.360;-149.532;2023-05-19T05:08:11;99198.71;;;19.49;25.73
60267;BME280;46125;61.360;-149.532;2023-05-19T05:10:40;99190.96;;;18.78;25.82
60267;BME280;46125;61.360;-149.532;2023-05-19T05:13:09;99189.86;;;18.72;25.44
60267;BME280;46125;61.360;-149.532;2023-05-19T05:15:38;99187.69;;;18.61;25.90
60267;BME280;46125;61.360;-149.532;2023-05-19T05:18:07;99186.29;;;18.77;26.02
60267;BME280;46125;61.360;-149.532;2023-05-19T05:20:37;99183.82;;;18.72;26.27
60267;BME280;46125;61.360;-149.532;2023-05-19T05:23:06;99186.47;;;18.69;26.30
60267;BME280;46125;61.360;-149.532;2023-05-19T05:25:35;99184.76;;;18.76;25.83
60267;BME280;46125;61.360;-149.532;2023-05-19T05:28:04;99181.71;;;19.61;25.35
60267;BME280;46125;61.360;-149.532;2023-05-19T05:30:34;99177.29;;;19.55;25.98
60267;BME280;46125;61.360;-149.532;2023-05-19T05:33:02;99176.41;;;19.28;25.85
60267;BME280;46125;61.360;-149.532;2023-05-19T05:35:31;99173.10;;;19.47;25.53
60267;BME280;46125;61.360;-149.532;2023-05-19T05:37:59;99171.08;;;19.36;25.99
60267;BME280;46125;61.360;-149.532;2023-05-19T05:40:28;99172.54;;;19.25;26.28
60267;BME280;46125;61.360;-149.532;2023-05-19T05:42:56;99174.44;;;19.13;26.51
60267;BME280;46125;61.360;-149.532;2023-05-19T05:45:25;99175.34;;;19.57;26.62
60267;BME280;46125;61.360;-149.532;2023-05-19T05:47:54;99173.97;;;19.64;27.33
60267;BME280;46125;61.360;-149.532;2023-05-19T05:50:23;99174.84;;;18.26;28.81
60267;BME280;46125;61.360;-149.532;2023-05-19T05:52:53;99172.70;;;18.77;28.74
60267;BME280;46125;61.360;-149.532;2023-05-19T05:55:23;99174.85;;;18.95;28.55
60267;BME280;46125;61.360;-149.532;2023-05-19T05:57:52;99169.79;;;19.26;28.36
60267;BME280;46125;61.360;-149.532;2023-05-19T06:00:20;99170.42;;;18.90;28.69
60267;BME280;46125;61.360;-149.532;2023-05-19T06:02:50;99169.27;;;19.21;28.41
60267;BME280;46125;61.360;-149.532;2023-05-19T06:05:20;99166.59;;;19.23;28.28
60267;BME280;46125;61.360;-149.532;2023-05-19T06:07:53;99166.27;;;19.41;28.12
60267;BME280;46125;61.360;-149.532;2023-05-19T06:10:23;99167.48;;;18.66;29.34
60267;BME280;46125;61.360;-149.532;2023-05-19T06:12:57;99164.13;;;19.19;28.75
60267;BME280;46125;61.360;-149.532;2023-05-19T06:15:26;99160.89;;;19.24;28.40
60267;BME280;46125;61.360;-149.532;2023-05-19T06:17:54;99155.47;;;19.21;28.39
60267;BME280;46125;61.360;-149.532;2023-05-19T06:20:23;99151.98;;;19.08;29.17
60267;BME280;46125;61.360;-149.532;2023-05-19T06:22:51;99154.60;;;19.07;28.84
60267;BME280;46125;61.360;-149.532;2023-05-19T06:25:19;99151.28;;;19.01;29.00
60267;BME280;46125;61.360;-149.532;2023-05-19T06:27:48;99149.64;;;18.91;28.92
60267;BME280;46125;61.360;-149.532;2023-05-19T06:30:17;99147.01;;;18.86;29.66
60267;BME280;46125;61.360;-149.532;2023-05-19T06:32:45;99144.30;;;18.61;29.78
60267;BME280;46125;61.360;-149.532;2023-05-19T06:35:14;99141.00;;;18.85;29.96
60267;BME280;46125;61.360;-149.532;2023-05-19T06:37:42;99141.59;;;18.58;30.60
60267;BME280;46125;61.360;-149.532;2023-05-19T06:40:11;99143.07;;;18.46;30.21
60267;BME280;46125;61.360;-149.532;2023-05-19T06:42:40;99144.41;;;18.11;29.99
60267;BME280;46125;61.360;-149.532;2023-05-19T06:45:09;99145.03;;;17.48;30.62
60267;BME280;46125;61.360;-149.532;2023-05-19T06:47:38;99144.12;;;17.83;31.11
60267;BME280;46125;61.360;-149.532;2023-05-19T06:50:07;99143.77;;;17.72;30.20
60267;BME280;46125;61.360;-149.532;2023-05-19T06:52:36;99138.15;;;17.68;30.99
60267;BME280;46125;61.360;-149.532;2023-05-19T06:55:05;99138.99;;;17.59;30.51
60267;BME280;46125;61.360;-149.532;2023-05-19T06:57:38;99141.81;;;17.63;30.58
60267;BME280;46125;61.360;-149.532;2023-05-19T07:00:08;99142.32;;;17.50;31.98
60267;BME280;46125;61.360;-149.532;2023-05-19T07:02:37;99139.66;;;16.89;33.45
60267;BME280;46125;61.360;-149.532;2023-05-19T07:05:06;99138.88;;;17.03;33.08
60267;BME280;46125;61.360;-149.532;2023-05-19T07:07:35;99142.75;;;17.11;32.61
60267;BME280;46125;61.360;-149.532;2023-05-19T07:10:04;99142.47;;;16.94;32.91
60267;BME280;46125;61.360;-149.532;2023-05-19T07:12:38;99136.90;;;16.59;33.34
60267;BME280;46125;61.360;-149.532;2023-05-19T07:15:09;99132.61;;;16.81;32.76
60267;BME280;46125;61.360;-149.532;2023-05-19T07:17:38;99129.06;;;16.89;32.72
60267;BME280;46125;61.360;-149.532;2023-05-19T07:20:07;99130.02;;;16.69;33.24
60267;BME280;46125;61.360;-149.532;2023-05-19T07:22:35;99125.95;;;16.27;32.58
60267;BME280;46125;61.360;-149.532;2023-05-19T07:25:04;99120.94;;;16.60;32.60
60267;BME280;46125;61.360;-149.532;2023-05-19T07:27:33;99119.75;;;17.08;32.49
60267;BME280;46125;61.360;-149.532;2023-05-19T07:30:02;99120.42;;;16.32;32.24
60267;BME280;46125;61.360;-149.532;2023-05-19T07:32:31;99122.35;;;16.78;31.95
60267;BME280;46125;61.360;-149.532;2023-05-19T07:35:01;99123.27;;;16.19;31.74
60267;BME280;46125;61.360;-149.532;2023-05-19T07:37:30;99120.65;;;16.03;31.81
60267;BME280;46125;61.360;-149.532;2023-05-19T07:39:58;99125.82;;;16.23;31.61
60267;BME280;46125;61.360;-149.532;2023-05-19T07:42:26;99124.31;;;16.54;31.92
60267;BME280;46125;61.360;-149.532;2023-05-19T07:44:55;99124.15;;;16.66;32.57
60267;BME280;46125;61.360;-149.532;2023-05-19T07:47:23;99120.70;;;16.62;32.60
60267;BME280;46125;61.360;-149.532;2023-05-19T07:49:52;99119.19;;;16.44;32.75
60267;BME280;46125;61.360;-149.532;2023-05-19T07:52:20;99120.67;;;16.41;32.49
60267;BME280;46125;61.360;-149.532;2023-05-19T07:54:50;99121.99;;;16.29;32.24
60267;BME280;46125;61.360;-149.532;2023-05-19T07:57:18;99119.73;;;16.16;32.06
60267;BME280;46125;61.360;-149.532;2023-05-19T07:59:46;99116.26;;;15.81;32.27
60267;BME280;46125;61.360;-149.532;2023-05-19T08:02:15;99113.55;;;15.93;32.22
60267;BME280;46125;61.360;-149.532;2023-05-19T08:04:43;99113.85;;;15.89;32.32
60267;BME280;46125;61.360;-149.532;2023-05-19T08:07:12;99112.65;;;15.72;32.87
60267;BME280;46125;61.360;-149.532;2023-05-19T08:09:41;99110.83;;;15.63;33.04
60267;BME280;46125;61.360;-149.532;2023-05-19T08:12:10;99106.13;;;15.64;32.82
60267;BME280;46125;61.360;-149.532;2023-05-19T08:14:38;99101.26;;;15.67;32.03
60267;BME280;46125;61.360;-149.532;2023-05-19T08:17:07;99100.22;;;15.70;32.06
60267;BME280;46125;61.360;-149.532;2023-05-19T08:19:36;99096.02;;;15.88;32.01
60267;BME280;46125;61.360;-149.532;2023-05-19T08:22:05;99098.39;;;15.70;31.99
60267;BME280;46125;61.360;-149.532;2023-05-19T08:24:33;99099.73;;;15.97;31.94
60267;BME280;46125;61.360;-149.532;2023-05-19T08:27:02;99092.65;;;15.77;31.97
60267;BME280;46125;61.360;-149.532;2023-05-19T08:29:30;99091.59;;;15.96;31.96
60267;BME280;46125;61.360;-149.532;2023-05-19T08:31:59;99094.25;;;15.79;32.93
60267;BME280;46125;61.360;-149.532;2023-05-19T08:34:28;99093.15;;;15.65;32.99
60267;BME280;46125;61.360;-149.532;2023-05-19T08:36:56;99095.25;;;15.56;33.62
60267;BME280;46125;61.360;-149.532;2023-05-19T08:39:25;99098.48;;;15.89;33.24
60267;BME280;46125;61.360;-149.532;2023-05-19T08:41:53;99101.41;;;15.61;32.86
60267;BME280;46125;61.360;-149.532;2023-05-19T08:44:22;99099.49;;;15.87;32.72
60267;BME280;46125;61.360;-149.532;2023-05-19T08:46:54;99093.63;;;15.31;32.57
60267;BME280;46125;61.360;-149.532;2023-05-19T08:49:26;99093.87;;;15.59;32.27
60267;BME280;46125;61.360;-149.532;2023-05-19T08:52:01;99092.43;;;15.39;32.43
60267;BME280;46125;61.360;-149.532;2023-05-19T08:54:40;99092.91;;;15.54;32.36
60267;BME280;46125;61.360;-149.532;2023-05-19T08:57:10;99095.60;;;15.31;33.14
60267;BME280;46125;61.360;-149.532;2023-05-19T08:59:41;99098.28;;;15.41;33.72
60267;BME280;46125;61.360;-149.532;2023-05-19T09:02:11;99098.57;;;15.39;33.72
60267;BME280;46125;61.360;-149.532;2023-05-19T09:04:41;99095.61;;;15.30;33.24
60267;BME280;46125;61.360;-149.532;2023-05-19T09:07:10;99095.61;;;15.27;33.66
60267;BME280;46125;61.360;-149.532;2023-05-19T09:09:41;99096.21;;;15.16;34.00
60267;BME280;46125;61.360;-149.532;2023-05-19T09:12:10;99092.31;;;15.32;33.85
60267;BME280;46125;61.360;-149.532;2023-05-19T09:14:38;99094.17;;;15.22;33.70
60267;BME280;46125;61.360;-149.532;2023-05-19T09:17:07;99096.72;;;14.93;33.95
60267;BME280;46125;61.360;-149.532;2023-05-19T09:19:36;99101.45;;;15.07;34.90
60267;BME280;46125;61.360;-149.532;2023-05-19T09:22:09;99102.77;;;14.85;35.38
60267;BME280;46125;61.360;-149.532;2023-05-19T09:24:38;99103.36;;;14.65;35.30
60267;BME280;46125;61.360;-149.532;2023-05-19T09:27:07;99105.14;;;14.46;35.94
60267;BME280;46125;61.360;-149.532;2023-05-19T09:29:35;99104.61;;;14.35;35.61
60267;BME280;46125;61.360;-149.532;2023-05-19T09:32:04;99099.92;;;14.59;35.26
60267;BME280;46125;61.360;-149.532;2023-05-19T09:34:32;99097.25;;;14.27;35.42
60267;BME280;46125;61.360;-149.532;2023-05-19T09:37:01;99098.78;;;14.30;35.30
60267;BME280;46125;61.360;-149.532;2023-05-19T09:39:29;99092.12;;;14.44;35.27
60267;BME280;46125;61.360;-149.532;2023-05-19T09:41:58;99088.11;;;14.07;36.13
60267;BME280;46125;61.360;-149.532;2023-05-19T09:44:27;99084.34;;;14.61;36.88
60267;BME280;46125;61.360;-149.532;2023-05-19T09:46:55;99087.71;;;14.02;36.67
60267;BME280;46125;61.360;-149.532;2023-05-19T09:49:26;99086.39;;;14.00;36.71
60267;BME280;46125;61.360;-149.532;2023-05-19T09:51:55;99086.98;;;14.21;36.71
60267;BME280;46125;61.360;-149.532;2023-05-19T09:54:24;99083.58;;;14.21;36.56
60267;BME280;46125;61.360;-149.532;2023-05-19T09:56:57;99081.88;;;13.69;36.65
60267;BME280;46125;61.360;-149.532;2023-05-19T09:59:25;99081.32;;;14.14;36.79
60267;BME280;46125;61.360;-149.532;2023-05-19T10:01:56;99080.39;;;14.07;36.63
60267;BME280;46125;61.360;-149.532;2023-05-19T10:04:26;99078.97;;;13.72;36.40
60267;BME280;46125;61.360;-149.532;2023-05-19T10:06:55;99079.59;;;13.85;36.93
60267;BME280;46125;61.360;-149.532;2023-05-19T10:09:25;99079.40;;;13.72;36.59
60267;BME280;46125;61.360;-149.532;2023-05-19T10:11:56;99072.51;;;13.65;36.02
60267;BME280;46125;61.360;-149.532;2023-05-19T10:14:26;99067.26;;;13.86;36.15
60267;BME280;46125;61.360;-149.532;2023-05-19T10:16:56;99070.00;;;13.63;36.12
60267;BME280;46125;61.360;-149.532;2023-05-19T10:19:25;99067.33;;;13.56;35.97
60267;BME280;46125;61.360;-149.532;2023-05-19T10:21:54;99068.34;;;13.38;36.71
60267;BME280;46125;61.360;-149.532;2023-05-19T10:24:23;99065.81;;;13.45;36.59
60267;BME280;46125;61.360;-149.532;2023-05-19T10:26:56;99064.23;;;13.40;36.26
60267;BME280;46125;61.360;-149.532;2023-05-19T10:29:29;99064.48;;;13.59;36.21
60267;BME280;46125;61.360;-149.532;2023-05-19T10:32:05;99058.80;;;13.51;35.80
60267;BME280;46125;61.360;-149.532;2023-05-19T10:35:04;99051.83;;;13.34;35.39
60267;BME280;46125;61.360;-149.532;2023-05-19T10:37:43;99042.27;;;13.31;34.88
60267;BME280;46125;61.360;-149.532;2023-05-19T10:40:19;99037.94;;;13.34;34.65
60267;BME280;46125;61.360;-149.532;2023-05-19T10:43:08;99039.01;;;13.38;34.53
60267;BME280;46125;61.360;-149.532;2023-05-19T10:45:45;99043.05;;;13.36;34.45
60267;BME280;46125;61.360;-149.532;2023-05-19T10:48:15;99038.78;;;13.31;34.39
60267;BME280;46125;61.360;-149.532;2023-05-19T10:50:44;99033.86;;;13.26;34.44
60267;BME280;46125;61.360;-149.532;2023-05-19T10:53:15;99032.62;;;13.31;34.24
60267;BME280;46125;61.360;-149.532;2023-05-19T10:55:46;99025.70;;;13.29;35.12
60267;BME280;46125;61.360;-149.532;2023-05-19T10:58:37;99023.79;;;13.32;35.28
60267;BME280;46125;61.360;-149.532;2023-05-19T11:01:08;99023.62;;;13.22;35.14
60267;BME280;46125;61.360;-149.532;2023-05-19T11:03:46;99018.35;;;13.13;35.00
60267;BME280;46125;61.360;-149.532;2023-05-19T11:06:19;99016.01;;;13.21;35.75
60267;BME280;46125;61.360;-149.532;2023-05-19T11:08:52;99001.80;;;13.08;35.68
60267;BME280;46125;61.360;-149.532;2023-05-19T11:11:21;99000.92;;;13.40;35.56
60267;BME280;46125;61.360;-149.532;2023-05-19T11:13:52;99003.41;;;13.09;35.54
60267;BME280;46125;61.360;-149.532;2023-05-19T11:16:27;98998.51;;;12.66;37.08
60267;BME280;46125;61.360;-149.532;2023-05-19T11:18:57;98992.22;;;12.94;36.50
60267;BME280;46125;61.360;-149.532;2023-05-19T11:21:40;98988.10;;;13.00;35.73
60267;BME280;46125;61.360;-149.532;2023-05-19T11:24:09;98988.25;;;13.08;35.87
60267;BME280;46125;61.360;-149.532;2023-05-19T11:26:41;98985.19;;;12.93;36.08
60267;BME280;46125;61.360;-149.532;2023-05-19T11:29:10;98989.89;;;12.95;36.15
60267;BME280;46125;61.360;-149.532;2023-05-19T11:31:39;98990.27;;;12.79;36.39
60267;BME280;46125;61.360;-149.532;2023-05-19T11:34:10;98991.35;;;12.62;37.10
60267;BME280;46125;61.360;-149.532;2023-05-19T11:36:39;98989.65;;;12.77;36.23
60267;BME280;46125;61.360;-149.532;2023-05-19T11:39:09;98985.47;;;12.78;35.96
60267;BME280;46125;61.360;-149.532;2023-05-19T11:41:39;98982.62;;;12.57;35.62
60267;BME280;46125;61.360;-149.532;2023-05-19T11:44:10;98987.13;;;12.65;35.43
60267;BME280;46125;61.360;-149.532;2023-05-19T11:46:38;98987.84;;;12.89;35.79
60267;BME280;46125;61.360;-149.532;2023-05-19T11:49:07;98986.34;;;12.83;36.18
60267;BME280;46125;61.360;-149.532;2023-05-19T11:51:36;98980.99;;;12.93;36.43
60267;BME280;46125;61.360;-149.532;2023-05-19T11:54:05;98976.11;;;12.54;37.96
60267;BME280;46125;61.360;-149.532;2023-05-19T11:56:36;98983.76;;;11.32;40.37
60267;BME280;46125;61.360;-149.532;2023-05-19T11:59:07;98983.63;;;11.56;40.50
60267;BME280;46125;61.360;-149.532;2023-05-19T12:01:36;98988.58;;;11.26;41.00
60267;BME280;46125;61.360;-149.532;2023-05-19T12:04:08;98986.34;;;11.14;41.95
60267;BME280;46125;61.360;-149.532;2023-05-19T12:06:37;98986.48;;;11.09;40.79
60267;BME280;46125;61.360;-149.532;2023-05-19T12:09:07;98984.49;;;11.37;40.13
60267;BME280;46125;61.360;-149.532;2023-05-19T12:11:37;98976.34;;;11.45;39.29
60267;BME280;46125;61.360;-149.532;2023-05-19T12:14:09;98970.45;;;11.67;38.85
60267;BME280;46125;61.360;-149.532;2023-05-19T12:16:39;98963.27;;;11.73;39.01
60267;BME280;46125;61.360;-149.532;2023-05-19T12:19:08;98960.14;;;11.83;38.48
60267;BME280;46125;61.360;-149.532;2023-05-19T12:21:37;98953.25;;;12.22;38.11
60267;BME280;46125;61.360;-149.532;2023-05-19T12:24:06;98949.35;;;11.71;38.15
60267;BME280;46125;61.360;-149.532;2023-05-19T12:26:35;98945.14;;;11.80;37.31
60267;BME280;46125;61.360;-149.532;2023-05-19T12:29:05;98947.97;;;12.08;37.33
60267;BME280;46125;61.360;-149.532;2023-05-19T12:31:34;98948.59;;;12.10;37.60
60267;BME280;46125;61.360;-149.532;2023-05-19T12:34:03;98954.61;;;11.53;39.14
60267;BME280;46125;61.360;-149.532;2023-05-19T12:36:32;98966.92;;;10.62;41.85
60267;BME280;46125;61.360;-149.532;2023-05-19T12:39:01;98970.83;;;9.84;42.80
60267;BME280;46125;61.360;-149.532;2023-05-19T12:41:32;98968.74;;;10.38;41.58
60267;BME280;46125;61.360;-149.532;2023-05-19T12:44:01;98968.67;;;10.57;40.71
60267;BME280;46125;61.360;-149.532;2023-05-19T12:46:40;98971.97;;;10.68;41.29